sensor_id;sensor_type;location;lat;lon;timestamp;P1;durP1;ratioP1;P2;durP2;ratioP2
57341;SDS011;43175;51.002;18.316;2023-12-20T00:01:35;15.50;;;7.10;;
57341;SDS011;43175;51.002;18.316;2023-12-20T00:04:01;14.60;;;6.90;;
57341;SDS011;43175;51.002;18.316;2023-12-20T00:06:27;14.10;;;7.00;;
57341;SDS011;43175;51.002;18.316;2023-12-20T00:08:53;14.80;;;7.30;;
57341;SDS011;43175;51.002;18.316;2023-12-20T00:11:19;15.20;;;7.20;;
57341;SDS011;43175;51.002;18.316;2023-12-20T00:13:44;15.30;;;7.50;;
57341;SDS011;43175;51.002;18.316;2023-12-20T00:16:10;16.10;;;7.20;;
57341;SDS011;43175;51.002;18.316;2023-12-20T00:18:35;15.90;;;7.60;;
57341;SDS011;43175;51.002;18.316;2023-12-20T00:21:01;15.70;;;7.30;;
57341;SDS011;43175;51.002;18.316;2023-12-20T00:23:27;16.60;;;7.60;;
57341;SDS011;43175;51.002;18.316;2023-12-20T00:25:52;15.90;;;7.60;;
57341;SDS011;43175;51.002;18.316;2023-12-20T00:28:18;14.80;;;7.50;;
57341;SDS011;43175;51.002;18.316;2023-12-20T00:30:43;17.10;;;7.40;;
57341;SDS011;43175;51.002;18.316;2023-12-20T00:33:09;16.70;;;8.10;;
57341;SDS011;43175;51.002;18.316;2023-12-20T00:35:34;16.30;;;7.70;;
57341;SDS011;43175;51.002;18.316;2023-12-20T00:38:00;16.70;;;7.80;;
57341;SDS011;43175;51.002;18.316;2023-12-20T00:40:26;14.50;;;7.30;;
57341;SDS011;43175;51.002;18.316;2023-12-20T00:42:51;15.50;;;7.30;;
57341;SDS011;43175;51.002;18.316;2023-12-20T00:45:17;17.10;;;8.10;;
57341;SDS011;43175;51.002;18.316;2023-12-20T00:47:43;15.40;;;7.60;;
57341;SDS011;43175;51.002;18.316;2023-12-20T00:50:08;15.40;;;7.90;;
57341;SDS011;43175;51.002;18.316;2023-12-20T00:52:34;15.40;;;7.60;;
57341;SDS011;43175;51.002;18.316;2023-12-20T00:55:00;17.50;;;8.10;;
57341;SDS011;43175;51.002;18.316;2023-12-20T00:57:26;16.20;;;8.10;;
57341;SDS011;43175;51.002;18.316;2023-12-20T00:59:52;16.30;;;7.90;;
57341;SDS011;43175;51.002;18.316;2023-12-20T01:02:17;16.50;;;8.10;;
57341;SDS011;43175;51.002;18.316;2023-12-20T01:04:43;15.50;;;8.20;;
57341;SDS011;43175;51.002;18.316;2023-12-20T01:07:08;15.60;;;8.30;;
57341;SDS011;43175;51.002;18.316;2023-12-20T01:09:34;14.80;;;7.60;;
57341;SDS011;43175;51.002;18.316;2023-12-20T01:12:00;16.30;;;8.20;;
57341;SDS011;43175;51.002;18.316;2023-12-20T01:14:25;15.60;;;8.20;;
57341;SDS011;43175;51.002;18.316;2023-12-20T01:16:51;18.30;;;8.60;;
57341;SDS011;43175;51.002;18.316;2023-12-20T01:19:16;14.70;;;7.60;;
57341;SDS011;43175;51.002;18.316;2023-12-20T01:21:42;15.70;;;8.10;;
57341;SDS011;43175;51.002;18.316;2023-12-20T01:24:07;15.80;;;8.30;;
57341;SDS011;43175;51.002;18.316;2023-12-20T01:26:33;17.20;;;8.30;;
57341;SDS011;43175;51.002;18.316;2023-12-20T01:28:59;17.50;;;8.20;;
57341;SDS011;43175;51.002;18.316;2023-12-20T01:31:24;15.80;;;8.60;;
57341;SDS011;43175;51.002;18.316;2023-12-20T01:33:50;15.90;;;8.10;;
57341;SDS011;43175;51.002;18.316;2023-12-20T01:36:15;15.60;;;8.50;;
57341;SDS011;43175;51.002;18.316;2023-12-20T01:38:41;16.20;;;8.10;;
57341;SDS011;43175;51.002;18.316;2023-12-20T01:41:07;15.80;;;8.10;;
57341;SDS011;43175;51.002;18.316;2023-12-20T01:43:32;15.90;;;8.30;;
57341;SDS011;43175;51.002;18.316;2023-12-20T01:45:57;16.10;;;8.60;;
57341;SDS011;43175;51.002;18.316;2023-12-20T01:48:24;16.40;;;8.20;;
57341;SDS011;43175;51.002;18.316;2023-12-20T01:50:51;15.50;;;8.10;;
57341;SDS011;43175;51.002;18.316;2023-12-20T01:53:17;16.10;;;8.10;;
57341;SDS011;43175;51.002;18.316;2023-12-20T01:55:44;15.10;;;7.80;;
57341;SDS011;43175;51.002;18.316;2023-12-20T01:58:10;16.40;;;8.40;;
57341;SDS011;43175;51.002;18.316;2023-12-20T02:00:36;16.50;;;8.00;;
57341;SDS011;43175;51.002;18.316;2023-12-20T02:03:02;16.60;;;8.70;;
57341;SDS011;43175;51.002;18.316;2023-12-20T02:05:30;15.30;;;8.10;;
57341;SDS011;43175;51.002;18.316;2023-12-20T02:07:56;16.00;;;8.80;;
57341;SDS011;43175;51.002;18.316;2023-12-20T02:10:22;16.30;;;8.30;;
57341;SDS011;43175;51.002;18.316;2023-12-20T02:12:48;15.80;;;8.10;;
57341;SDS011;43175;51.002;18.316;2023-12-20T02:48:49;16.10;;;8.90;;
57341;SDS011;43175;51.002;18.316;2023-12-20T02:51:15;17.90;;;9.40;;
57341;SDS011;43175;51.002;18.316;2023-12-20T02:53:41;16.90;;;9.50;;
57341;SDS011;43175;51.002;18.316;2023-12-20T02:56:06;18.20;;;9.60;;
57341;SDS011;43175;51.002;18.316;2023-12-20T02:58:32;19.50;;;10.30;;
57341;SDS011;43175;51.002;18.316;2023-12-20T03:00:57;18.80;;;9.60;;
57341;SDS011;43175;51.002;18.316;2023-12-20T03:03:23;17.10;;;9.80;;
57341;SDS011;43175;51.002;18.316;2023-12-20T03:05:49;18.30;;;10.10;;
57341;SDS011;43175;51.002;18.316;2023-12-20T03:08:14;18.40;;;10.50;;
57341;SDS011;43175;51.002;18.316;2023-12-20T03:10:40;19.30;;;10.50;;
57341;SDS011;43175;51.002;18.316;2023-12-20T03:13:06;20.10;;;10.80;;
57341;SDS011;43175;51.002;18.316;2023-12-20T03:15:32;20.20;;;10.90;;
57341;SDS011;43175;51.002;18.316;2023-12-20T03:17:57;20.60;;;11.30;;
57341;SDS011;43175;51.002;18.316;2023-12-20T03:20:24;19.80;;;11.50;;
57341;SDS011;43175;51.002;18.316;2023-12-20T03:22:51;21.70;;;11.70;;
57341;SDS011;43175;51.002;18.316;2023-12-20T03:25:17;19.20;;;11.40;;
57341;SDS011;43175;51.002;18.316;2023-12-20T03:27:42;21.00;;;11.60;;
57341;SDS011;43175;51.002;18.316;2023-12-20T03:30:08;20.60;;;11.70;;
57341;SDS011;43175;51.002;18.316;2023-12-20T03:32:34;19.90;;;11.70;;
57341;SDS011;43175;51.002;18.316;2023-12-20T03:35:00;20.10;;;12.30;;
57341;SDS011;43175;51.002;18.316;2023-12-20T03:37:26;19.90;;;11.90;;
57341;SDS011;43175;51.002;18.316;2023-12-20T03:39:51;20.10;;;12.00;;
57341;SDS011;43175;51.002;18.316;2023-12-20T03:42:17;19.30;;;11.80;;
57341;SDS011;43175;51.002;18.316;2023-12-20T03:44:42;18.90;;;11.30;;
57341;SDS011;43175;51.002;18.316;2023-12-20T03:47:08;19.90;;;11.90;;
57341;SDS011;43175;51.002;18.316;2023-12-20T03:49:33;21.40;;;12.00;;
57341;SDS011;43175;51.002;18.316;2023-12-20T03:52:02;20.60;;;12.60;;
57341;SDS011;43175;51.002;18.316;2023-12-20T03:54:28;22.60;;;13.30;;
57341;SDS011;43175;51.002;18.316;2023-12-20T03:56:54;22.80;;;14.00;;
57341;SDS011;43175;51.002;18.316;2023-12-20T03:59:19;22.30;;;13.50;;
57341;SDS011;43175;51.002;18.316;2023-12-20T04:01:45;21.40;;;13.30;;
57341;SDS011;43175;51.002;18.316;2023-12-20T04:04:10;21.20;;;13.90;;
57341;SDS011;43175;51.002;18.316;2023-12-20T04:06:37;22.90;;;14.00;;
57341;SDS011;43175;51.002;18.316;2023-12-20T04:09:03;23.10;;;14.50;;
57341;SDS011;43175;51.002;18.316;2023-12-20T04:11:29;22.90;;;14.70;;
57341;SDS011;43175;51.002;18.316;2023-12-20T04:13:54;22.80;;;15.00;;
57341;SDS011;43175;51.002;18.316;2023-12-20T04:16:20;26.30;;;16.10;;
57341;SDS011;43175;51.002;18.316;2023-12-20T04:18:45;24.20;;;15.20;;
57341;SDS011;43175;51.002;18.316;2023-12-20T04:21:11;24.60;;;15.30;;
57341;SDS011;43175;51.002;18.316;2023-12-20T04:23:36;25.80;;;16.60;;
57341;SDS011;43175;51.002;18.316;2023-12-20T04:26:02;24.40;;;15.20;;
57341;SDS011;43175;51.002;18.316;2023-12-20T04:28:28;26.70;;;15.30;;
57341;SDS011;43175;51.002;18.316;2023-12-20T04:30:55;23.60;;;15.10;;
57341;SDS011;43175;51.002;18.316;2023-12-20T04:33:21;23.70;;;14.30;;
57341;SDS011;43175;51.002;18.316;2023-12-20T04:35:47;22.30;;;13.80;;
57341;SDS011;43175;51.002;18.316;2023-12-20T04:38:13;22.70;;;14.30;;
57341;SDS011;43175;51.002;18.316;2023-12-20T04:40:39;23.50;;;13.50;;
57341;SDS011;43175;51.002;18.316;2023-12-20T04:43:06;22.20;;;13.80;;
57341;SDS011;43175;51.002;18.316;2023-12-20T04:45:33;22.30;;;13.50;;
57341;SDS011;43175;51.002;18.316;2023-12-20T04:47:59;22.40;;;13.60;;
57341;SDS011;43175;51.002;18.316;2023-12-20T04:50:24;24.40;;;13.90;;
57341;SDS011;43175;51.002;18.316;2023-12-20T04:52:50;23.20;;;14.60;;
57341;SDS011;43175;51.002;18.316;2023-12-20T04:55:16;22.30;;;14.20;;
57341;SDS011;43175;51.002;18.316;2023-12-20T04:57:42;23.10;;;13.80;;
57341;SDS011;43175;51.002;18.316;2023-12-20T05:00:08;22.30;;;13.80;;
57341;SDS011;43175;51.002;18.316;2023-12-20T05:02:35;22.00;;;13.00;;
57341;SDS011;43175;51.002;18.316;2023-12-20T05:05:01;21.90;;;13.30;;
57341;SDS011;43175;51.002;18.316;2023-12-20T05:07:26;22.50;;;13.20;;
57341;SDS011;43175;51.002;18.316;2023-12-20T05:09:52;21.00;;;12.50;;
57341;SDS011;43175;51.002;18.316;2023-12-20T05:12:17;22.50;;;12.80;;
57341;SDS011;43175;51.002;18.316;2023-12-20T05:14:43;23.30;;;13.90;;
57341;SDS011;43175;51.002;18.316;2023-12-20T05:17:09;21.60;;;12.70;;
57341;SDS011;43175;51.002;18.316;2023-12-20T05:19:34;22.40;;;12.80;;
57341;SDS011;43175;51.002;18.316;2023-12-20T05:22:01;22.80;;;13.10;;
57341;SDS011;43175;51.002;18.316;2023-12-20T05:24:27;19.10;;;10.60;;
57341;SDS011;43175;51.002;18.316;2023-12-20T05:26:53;15.60;;;8.30;;
57341;SDS011;43175;51.002;18.316;2023-12-20T05:29:18;14.50;;;7.60;;
57341;SDS011;43175;51.002;18.316;2023-12-20T05:31:44;14.10;;;7.40;;
57341;SDS011;43175;51.002;18.316;2023-12-20T05:34:10;14.60;;;7.20;;
57341;SDS011;43175;51.002;18.316;2023-12-20T05:36:35;14.40;;;7.10;;
57341;SDS011;43175;51.002;18.316;2023-12-20T05:39:01;14.40;;;7.20;;
57341;SDS011;43175;51.002;18.316;2023-12-20T05:41:28;13.20;;;6.30;;
57341;SDS011;43175;51.002;18.316;2023-12-20T05:43:54;29.90;;;16.20;;
57341;SDS011;43175;51.002;18.316;2023-12-20T05:46:20;13.80;;;6.90;;
57341;SDS011;43175;51.002;18.316;2023-12-20T05:48:47;13.70;;;6.50;;
57341;SDS011;43175;51.002;18.316;2023-12-20T05:51:12;15.70;;;8.70;;
57341;SDS011;43175;51.002;18.316;2023-12-20T05:53:38;13.70;;;6.50;;
57341;SDS011;43175;51.002;18.316;2023-12-20T05:56:04;11.00;;;4.90;;
57341;SDS011;43175;51.002;18.316;2023-12-20T05:58:30;14.40;;;7.50;;
57341;SDS011;43175;51.002;18.316;2023-12-20T06:00:55;23.60;;;14.70;;
57341;SDS011;43175;51.002;18.316;2023-12-20T06:03:21;18.50;;;9.90;;
57341;SDS011;43175;51.002;18.316;2023-12-20T06:05:47;17.70;;;9.00;;
57341;SDS011;43175;51.002;18.316;2023-12-20T06:08:12;16.90;;;8.60;;
57341;SDS011;43175;51.002;18.316;2023-12-20T06:10:38;17.00;;;9.30;;
57341;SDS011;43175;51.002;18.316;2023-12-20T06:13:03;15.30;;;7.60;;
57341;SDS011;43175;51.002;18.316;2023-12-20T06:15:32;14.10;;;6.70;;
57341;SDS011;43175;51.002;18.316;2023-12-20T06:17:58;13.50;;;7.30;;
57341;SDS011;43175;51.002;18.316;2023-12-20T06:20:24;13.60;;;6.70;;
57341;SDS011;43175;51.002;18.316;2023-12-20T06:22:50;16.10;;;8.50;;
57341;SDS011;43175;51.002;18.316;2023-12-20T06:25:16;15.20;;;7.70;;
57341;SDS011;43175;51.002;18.316;2023-12-20T06:27:41;14.30;;;7.30;;
57341;SDS011;43175;51.002;18.316;2023-12-20T06:30:07;11.60;;;5.40;;
57341;SDS011;43175;51.002;18.316;2023-12-20T06:32:36;11.00;;;5.20;;
57341;SDS011;43175;51.002;18.316;2023-12-20T06:35:03;13.20;;;6.80;;
57341;SDS011;43175;51.002;18.316;2023-12-20T06:37:30;11.90;;;6.00;;
57341;SDS011;43175;51.002;18.316;2023-12-20T06:39:55;13.30;;;6.30;;
57341;SDS011;43175;51.002;18.316;2023-12-20T06:42:22;15.00;;;6.90;;
57341;SDS011;43175;51.002;18.316;2023-12-20T06:44:48;14.60;;;7.70;;
57341;SDS011;43175;51.002;18.316;2023-12-20T06:47:13;11.90;;;6.00;;
57341;SDS011;43175;51.002;18.316;2023-12-20T06:49:40;11.90;;;5.60;;
57341;SDS011;43175;51.002;18.316;2023-12-20T06:52:05;14.40;;;7.90;;
57341;SDS011;43175;51.002;18.316;2023-12-20T06:54:31;14.00;;;5.40;;
57341;SDS011;43175;51.002;18.316;2023-12-20T06:56:59;10.60;;;3.70;;
57341;SDS011;43175;51.002;18.316;2023-12-20T06:59:25;8.80;;;3.50;;
57341;SDS011;43175;51.002;18.316;2023-12-20T07:01:51;11.70;;;4.40;;
57341;SDS011;43175;51.002;18.316;2023-12-20T07:04:17;11.00;;;4.30;;
57341;SDS011;43175;51.002;18.316;2023-12-20T07:06:49;12.50;;;6.10;;
57341;SDS011;43175;51.002;18.316;2023-12-20T07:09:22;12.00;;;5.40;;
57341;SDS011;43175;51.002;18.316;2023-12-20T07:11:47;13.20;;;6.90;;
57341;SDS011;43175;51.002;18.316;2023-12-20T07:14:13;10.80;;;5.00;;
57341;SDS011;43175;51.002;18.316;2023-12-20T07:16:39;10.50;;;4.90;;
57341;SDS011;43175;51.002;18.316;2023-12-20T07:19:06;9.80;;;3.50;;
57341;SDS011;43175;51.002;18.316;2023-12-20T07:21:31;10.60;;;4.90;;
57341;SDS011;43175;51.002;18.316;2023-12-20T07:23:57;10.60;;;4.90;;
57341;SDS011;43175;51.002;18.316;2023-12-20T07:26:22;9.40;;;4.00;;
57341;SDS011;43175;51.002;18.316;2023-12-20T07:28:49;11.00;;;5.50;;
57341;SDS011;43175;51.002;18.316;2023-12-20T07:31:15;11.40;;;5.60;;
57341;SDS011;43175;51.002;18.316;2023-12-20T07:33:41;11.00;;;5.00;;
57341;SDS011;43175;51.002;18.316;2023-12-20T07:36:07;10.50;;;4.50;;
57341;SDS011;43175;51.002;18.316;2023-12-20T07:38:33;11.40;;;5.20;;
57341;SDS011;43175;51.002;18.316;2023-12-20T07:40:59;9.90;;;4.00;;
57341;SDS011;43175;51.002;18.316;2023-12-20T07:43:25;10.00;;;4.30;;
57341;SDS011;43175;51.002;18.316;2023-12-20T07:45:50;10.80;;;4.80;;
57341;SDS011;43175;51.002;18.316;2023-12-20T07:48:16;10.40;;;4.50;;
57341;SDS011;43175;51.002;18.316;2023-12-20T07:50:42;11.40;;;5.00;;
57341;SDS011;43175;51.002;18.316;2023-12-20T07:53:08;10.90;;;4.90;;
57341;SDS011;43175;51.002;18.316;2023-12-20T07:55:33;8.80;;;3.70;;
57341;SDS011;43175;51.002;18.316;2023-12-20T07:57:59;9.50;;;3.80;;
57341;SDS011;43175;51.002;18.316;2023-12-20T08:00:26;9.60;;;3.90;;
57341;SDS011;43175;51.002;18.316;2023-12-20T08:02:52;13.60;;;6.40;;
57341;SDS011;43175;51.002;18.316;2023-12-20T08:05:17;10.60;;;4.80;;
57341;SDS011;43175;51.002;18.316;2023-12-20T08:07:43;10.40;;;4.90;;
57341;SDS011;43175;51.002;18.316;2023-12-20T08:10:08;11.20;;;4.70;;
57341;SDS011;43175;51.002;18.316;2023-12-20T08:12:34;9.40;;;3.80;;
57341;SDS011;43175;51.002;18.316;2023-12-20T08:15:00;10.60;;;4.70;;
57341;SDS011;43175;51.002;18.316;2023-12-20T08:17:26;9.20;;;3.80;;
57341;SDS011;43175;51.002;18.316;2023-12-20T08:19:51;9.60;;;3.70;;
57341;SDS011;43175;51.002;18.316;2023-12-20T08:22:17;9.30;;;3.70;;
57341;SDS011;43175;51.002;18.316;2023-12-20T08:24:43;9.70;;;3.50;;
57341;SDS011;43175;51.002;18.316;2023-12-20T08:27:08;10.40;;;3.70;;
57341;SDS011;43175;51.002;18.316;2023-12-20T08:29:34;10.10;;;4.30;;
57341;SDS011;43175;51.002;18.316;2023-12-20T08:32:01;12.80;;;6.10;;
57341;SDS011;43175;51.002;18.316;2023-12-20T08:34:26;11.70;;;5.70;;
57341;SDS011;43175;51.002;18.316;2023-12-20T08:36:52;13.60;;;6.40;;
57341;SDS011;43175;51.002;18.316;2023-12-20T08:39:18;13.00;;;7.00;;
57341;SDS011;43175;51.002;18.316;2023-12-20T08:41:43;13.90;;;7.10;;
57341;SDS011;43175;51.002;18.316;2023-12-20T08:44:09;12.90;;;6.10;;
57341;SDS011;43175;51.002;18.316;2023-12-20T08:46:35;13.20;;;6.40;;
57341;SDS011;43175;51.002;18.316;2023-12-20T08:49:01;12.60;;;6.20;;
57341;SDS011;43175;51.002;18.316;2023-12-20T08:51:27;15.40;;;7.40;;
57341;SDS011;43175;51.002;18.316;2023-12-20T08:53:53;15.00;;;6.80;;
57341;SDS011;43175;51.002;18.316;2023-12-20T08:56:19;16.40;;;7.70;;
57341;SDS011;43175;51.002;18.316;2023-12-20T08:58:48;16.40;;;7.70;;
57341;SDS011;43175;51.002;18.316;2023-12-20T09:01:14;18.00;;;9.00;;
57341;SDS011;43175;51.002;18.316;2023-12-20T09:03:40;16.60;;;8.30;;
57341;SDS011;43175;51.002;18.316;2023-12-20T09:06:06;15.20;;;6.70;;
57341;SDS011;43175;51.002;18.316;2023-12-20T09:08:31;15.20;;;7.30;;
57341;SDS011;43175;51.002;18.316;2023-12-20T09:10:57;18.40;;;9.10;;
57341;SDS011;43175;51.002;18.316;2023-12-20T09:13:23;15.00;;;7.80;;
57341;SDS011;43175;51.002;18.316;2023-12-20T09:15:56;18.40;;;9.10;;
57341;SDS011;43175;51.002;18.316;2023-12-20T09:18:22;17.80;;;8.90;;
57341;SDS011;43175;51.002;18.316;2023-12-20T09:20:47;15.80;;;8.00;;
57341;SDS011;43175;51.002;18.316;2023-12-20T09:23:13;17.10;;;9.10;;
57341;SDS011;43175;51.002;18.316;2023-12-20T09:25:38;18.40;;;9.40;;
57341;SDS011;43175;51.002;18.316;2023-12-20T09:28:04;18.10;;;10.40;;
57341;SDS011;43175;51.002;18.316;2023-12-20T09:30:30;16.60;;;9.30;;
57341;SDS011;43175;51.002;18.316;2023-12-20T09:32:57;19.30;;;10.00;;
57341;SDS011;43175;51.002;18.316;2023-12-20T09:35:23;13.00;;;6.90;;
57341;SDS011;43175;51.002;18.316;2023-12-20T09:37:48;14.60;;;8.30;;
57341;SDS011;43175;51.002;18.316;2023-12-20T09:40:14;14.10;;;7.40;;
57341;SDS011;43175;51.002;18.316;2023-12-20T09:45:29;16.80;;;7.60;;
57341;SDS011;43175;51.002;18.316;2023-12-20T09:47:55;17.20;;;9.20;;
57341;SDS011;43175;51.002;18.316;2023-12-20T09:50:23;21.80;;;12.90;;
57341;SDS011;43175;51.002;18.316;2023-12-20T09:52:52;16.10;;;8.40;;
57341;SDS011;43175;51.002;18.316;2023-12-20T09:55:19;15.80;;;8.30;;
57341;SDS011;43175;51.002;18.316;2023-12-20T09:57:45;16.60;;;9.10;;
57341;SDS011;43175;51.002;18.316;2023-12-20T10:00:12;15.30;;;8.30;;
57341;SDS011;43175;51.002;18.316;2023-12-20T10:02:40;13.80;;;7.40;;
57341;SDS011;43175;51.002;18.316;2023-12-20T10:05:12;14.00;;;6.70;;
57341;SDS011;43175;51.002;18.316;2023-12-20T10:07:44;11.30;;;4.70;;
57341;SDS011;43175;51.002;18.316;2023-12-20T10:10:11;13.10;;;5.40;;
57341;SDS011;43175;51.002;18.316;2023-12-20T10:12:38;13.10;;;5.90;;
57341;SDS011;43175;51.002;18.316;2023-12-20T10:15:05;12.50;;;6.30;;
57341;SDS011;43175;51.002;18.316;2023-12-20T10:17:31;97.10;;;44.20;;
57341;SDS011;43175;51.002;18.316;2023-12-20T10:19:57;53.00;;;24.80;;
57341;SDS011;43175;51.002;18.316;2023-12-20T10:22:23;37.50;;;21.60;;
57341;SDS011;43175;51.002;18.316;2023-12-20T10:24:49;18.70;;;11.00;;
57341;SDS011;43175;51.002;18.316;2023-12-20T10:27:15;20.20;;;14.30;;
57341;SDS011;43175;51.002;18.316;2023-12-20T10:29:44;14.40;;;8.80;;
57341;SDS011;43175;51.002;18.316;2023-12-20T10:32:23;22.50;;;14.40;;
57341;SDS011;43175;51.002;18.316;2023-12-20T10:34:50;22.30;;;13.40;;
57341;SDS011;43175;51.002;18.316;2023-12-20T10:37:16;18.60;;;10.70;;
57341;SDS011;43175;51.002;18.316;2023-12-20T10:39:42;15.90;;;8.80;;
57341;SDS011;43175;51.002;18.316;2023-12-20T10:42:11;15.10;;;8.40;;
57341;SDS011;43175;51.002;18.316;2023-12-20T10:44:38;13.80;;;6.60;;
57341;SDS011;43175;51.002;18.316;2023-12-20T10:47:03;15.10;;;8.30;;
57341;SDS011;43175;51.002;18.316;2023-12-20T10:49:29;13.80;;;6.30;;
57341;SDS011;43175;51.002;18.316;2023-12-20T10:51:56;12.20;;;6.00;;
57341;SDS011;43175;51.002;18.316;2023-12-20T10:54:24;12.60;;;5.50;;
57341;SDS011;43175;51.002;18.316;2023-12-20T10:56:49;11.70;;;5.70;;
57341;SDS011;43175;51.002;18.316;2023-12-20T10:59:18;10.10;;;4.20;;
57341;SDS011;43175;51.002;18.316;2023-12-20T11:01:45;12.70;;;6.40;;
57341;SDS011;43175;51.002;18.316;2023-12-20T11:04:13;13.10;;;6.80;;
57341;SDS011;43175;51.002;18.316;2023-12-20T11:09:25;12.80;;;6.30;;
57341;SDS011;43175;51.002;18.316;2023-12-20T11:11:57;14.80;;;7.90;;
57341;SDS011;43175;51.002;18.316;2023-12-20T11:14:34;17.10;;;9.50;;
57341;SDS011;43175;51.002;18.316;2023-12-20T11:17:09;13.70;;;6.30;;
57341;SDS011;43175;51.002;18.316;2023-12-20T11:22:24;16.70;;;9.00;;
57341;SDS011;43175;51.002;18.316;2023-12-20T11:24:50;14.10;;;6.80;;
57341;SDS011;43175;51.002;18.316;2023-12-20T11:27:16;14.00;;;7.60;;
57341;SDS011;43175;51.002;18.316;2023-12-20T11:29:49;14.70;;;7.20;;
57341;SDS011;43175;51.002;18.316;2023-12-20T11:34:58;14.30;;;6.80;;
57341;SDS011;43175;51.002;18.316;2023-12-20T11:37:28;14.50;;;7.70;;
57341;SDS011;43175;51.002;18.316;2023-12-20T11:40:06;13.40;;;6.60;;
57341;SDS011;43175;51.002;18.316;2023-12-20T11:42:37;18.50;;;10.40;;
57341;SDS011;43175;51.002;18.316;2023-12-20T11:45:05;14.50;;;6.10;;
57341;SDS011;43175;51.002;18.316;2023-12-20T11:47:31;14.10;;;7.00;;
57341;SDS011;43175;51.002;18.316;2023-12-20T11:49:57;15.10;;;7.30;;
57341;SDS011;43175;51.002;18.316;2023-12-20T11:52:22;13.30;;;6.10;;
57341;SDS011;43175;51.002;18.316;2023-12-20T11:54:48;17.30;;;9.00;;
57341;SDS011;43175;51.002;18.316;2023-12-20T11:57:14;13.50;;;6.00;;
57341;SDS011;43175;51.002;18.316;2023-12-20T11:59:40;13.70;;;5.40;;
57341;SDS011;43175;51.002;18.316;2023-12-20T12:02:05;13.70;;;6.40;;
57341;SDS011;43175;51.002;18.316;2023-12-20T12:04:31;13.90;;;6.50;;
57341;SDS011;43175;51.002;18.316;2023-12-20T12:06:57;15.50;;;6.40;;
57341;SDS011;43175;51.002;18.316;2023-12-20T12:09:22;12.50;;;5.50;;
57341;SDS011;43175;51.002;18.316;2023-12-20T12:11:48;11.70;;;5.20;;
57341;SDS011;43175;51.002;18.316;2023-12-20T12:14:13;12.90;;;5.40;;
57341;SDS011;43175;51.002;18.316;2023-12-20T12:16:39;12.90;;;6.20;;
57341;SDS011;43175;51.002;18.316;2023-12-20T12:19:07;13.60;;;4.70;;
57341;SDS011;43175;51.002;18.316;2023-12-20T12:21:45;13.50;;;6.00;;
57341;SDS011;43175;51.002;18.316;2023-12-20T12:24:11;10.20;;;4.50;;
57341;SDS011;43175;51.002;18.316;2023-12-20T12:26:37;12.90;;;5.50;;
57341;SDS011;43175;51.002;18.316;2023-12-20T12:29:03;12.70;;;4.40;;
57341;SDS011;43175;51.002;18.316;2023-12-20T12:31:29;13.40;;;5.10;;
57341;SDS011;43175;51.002;18.316;2023-12-20T12:33:55;10.90;;;4.50;;
57341;SDS011;43175;51.002;18.316;2023-12-20T12:36:21;14.30;;;5.60;;
57341;SDS011;43175;51.002;18.316;2023-12-20T12:38:47;13.60;;;5.30;;
57341;SDS011;43175;51.002;18.316;2023-12-20T12:41:12;14.10;;;5.40;;
57341;SDS011;43175;51.002;18.316;2023-12-20T12:43:40;14.60;;;5.50;;
57341;SDS011;43175;51.002;18.316;2023-12-20T12:46:06;12.20;;;4.60;;
57341;SDS011;43175;51.002;18.316;2023-12-20T12:48:32;14.60;;;6.30;;
57341;SDS011;43175;51.002;18.316;2023-12-20T12:50:59;12.20;;;4.20;;
57341;SDS011;43175;51.002;18.316;2023-12-20T12:53:25;10.70;;;4.30;;
57341;SDS011;43175;51.002;18.316;2023-12-20T12:55:52;12.40;;;4.20;;
57341;SDS011;43175;51.002;18.316;2023-12-20T12:58:18;10.30;;;4.00;;
57341;SDS011;43175;51.002;18.316;2023-12-20T13:00:45;9.40;;;3.70;;
57341;SDS011;43175;51.002;18.316;2023-12-20T13:03:10;11.40;;;4.50;;
57341;SDS011;43175;51.002;18.316;2023-12-20T13:05:36;11.20;;;4.10;;
57341;SDS011;43175;51.002;18.316;2023-12-20T13:08:03;10.50;;;4.70;;
57341;SDS011;43175;51.002;18.316;2023-12-20T13:10:29;11.40;;;3.80;;
57341;SDS011;43175;51.002;18.316;2023-12-20T13:12:54;12.90;;;5.20;;
57341;SDS011;43175;51.002;18.316;2023-12-20T13:15:20;10.70;;;4.30;;
57341;SDS011;43175;51.002;18.316;2023-12-20T13:17:45;11.10;;;4.30;;
57341;SDS011;43175;51.002;18.316;2023-12-20T13:20:11;10.40;;;4.20;;
57341;SDS011;43175;51.002;18.316;2023-12-20T13:22:37;12.30;;;5.10;;
57341;SDS011;43175;51.002;18.316;2023-12-20T13:25:03;12.00;;;5.00;;
57341;SDS011;43175;51.002;18.316;2023-12-20T13:27:29;11.40;;;4.50;;
57341;SDS011;43175;51.002;18.316;2023-12-20T13:29:54;13.30;;;5.70;;
57341;SDS011;43175;51.002;18.316;2023-12-20T13:32:20;13.60;;;5.10;;
57341;SDS011;43175;51.002;18.316;2023-12-20T13:34:46;14.60;;;5.40;;
57341;SDS011;43175;51.002;18.316;2023-12-20T13:37:12;12.20;;;5.20;;
57341;SDS011;43175;51.002;18.316;2023-12-20T13:39:37;11.80;;;4.40;;
57341;SDS011;43175;51.002;18.316;2023-12-20T13:42:03;13.80;;;5.10;;
57341;SDS011;43175;51.002;18.316;2023-12-20T13:44:29;15.20;;;4.40;;
57341;SDS011;43175;51.002;18.316;2023-12-20T13:46:56;11.90;;;4.40;;
57341;SDS011;43175;51.002;18.316;2023-12-20T13:49:21;20.30;;;12.20;;
57341;SDS011;43175;51.002;18.316;2023-12-20T13:51:51;14.70;;;6.60;;
57341;SDS011;43175;51.002;18.316;2023-12-20T13:54:16;17.90;;;7.70;;
57341;SDS011;43175;51.002;18.316;2023-12-20T13:56:45;14.30;;;6.80;;
57341;SDS011;43175;51.002;18.316;2023-12-20T13:59:11;16.40;;;8.40;;
57341;SDS011;43175;51.002;18.316;2023-12-20T14:01:37;15.70;;;7.80;;
57341;SDS011;43175;51.002;18.316;2023-12-20T14:04:03;18.20;;;11.90;;
57341;SDS011;43175;51.002;18.316;2023-12-20T14:06:29;13.40;;;6.70;;
57341;SDS011;43175;51.002;18.316;2023-12-20T14:08:55;11.60;;;4.90;;
57341;SDS011;43175;51.002;18.316;2023-12-20T14:11:21;12.10;;;5.20;;
57341;SDS011;43175;51.002;18.316;2023-12-20T14:13:47;14.60;;;6.80;;
57341;SDS011;43175;51.002;18.316;2023-12-20T14:16:12;14.90;;;7.70;;
57341;SDS011;43175;51.002;18.316;2023-12-20T14:18:38;18.10;;;8.50;;
57341;SDS011;43175;51.002;18.316;2023-12-20T14:21:05;13.10;;;5.60;;
57341;SDS011;43175;51.002;18.316;2023-12-20T14:23:31;13.30;;;5.90;;
57341;SDS011;43175;51.002;18.316;2023-12-20T14:25:59;14.00;;;4.90;;
57341;SDS011;43175;51.002;18.316;2023-12-20T14:28:25;14.70;;;5.20;;
57341;SDS011;43175;51.002;18.316;2023-12-20T14:30:51;14.80;;;6.90;;
57341;SDS011;43175;51.002;18.316;2023-12-20T14:33:16;14.90;;;5.40;;
57341;SDS011;43175;51.002;18.316;2023-12-20T14:35:42;14.00;;;5.30;;
57341;SDS011;43175;51.002;18.316;2023-12-20T14:38:09;12.70;;;5.00;;
57341;SDS011;43175;51.002;18.316;2023-12-20T14:40:35;12.40;;;4.70;;
57341;SDS011;43175;51.002;18.316;2023-12-20T14:43:01;12.40;;;5.00;;
57341;SDS011;43175;51.002;18.316;2023-12-20T14:45:29;16.40;;;6.10;;
57341;SDS011;43175;51.002;18.316;2023-12-20T14:47:55;13.70;;;6.30;;
57341;SDS011;43175;51.002;18.316;2023-12-20T14:50:21;15.80;;;7.30;;
57341;SDS011;43175;51.002;18.316;2023-12-20T14:52:47;13.40;;;5.90;;
57341;SDS011;43175;51.002;18.316;2023-12-20T14:55:12;13.60;;;5.80;;
57341;SDS011;43175;51.002;18.316;2023-12-20T14:57:38;12.90;;;5.40;;